Time;durP1;ratioP1;P1;durP2;ratioP2;P2;SDS_P1;SDS_P2;PMS_P1;PMS_P2;Temp;Humidity;BMP_temperature;BMP_pressure;BME280_temperature;BME280_humidity;BME280_pressure;Samples;Min_cycle;Max_cycle;Signal;HPM_P1;HPM_P2
2022/05/22 00:00:24;;;;;;;9.10;6.55;;;;;;;11.10;86.79;99690.34;1822591;78;25432;-72
2022/05/22 00:02:53;;;;;;;7.08;6.22;;;;;;;11.12;86.75;99693.50;1788514;79;25462;-72
2022/05/22 00:05:23;;;;;;;10.38;7.60;;;;;;;11.13;86.54;99695.64;1822551;78;25786;-73
2022/05/22 00:07:50;;;;;;;8.15;6.10;;;;;;;11.12;86.68;99688.66;1822588;78;25452;-73
2022/05/22 00:10:18;;;;;;;11.55;6.70;;;;;;;11.12;86.67;99698.13;1788491;80;27372;-72
2022/05/22 00:12:46;;;;;;;8.50;6.87;;;;;;;11.12;86.67;99692.15;1822451;78;25669;-72
2022/05/22 00:15:15;;;;;;;8.23;6.50;;;;;;;11.13;86.71;99693.72;1822540;78;25546;-72
2022/05/22 00:17:43;;;;;;;8.10;6.65;;;;;;;11.15;86.85;99689.33;1788583;80;25789;-72
2022/05/22 00:20:11;;;;;;;9.63;6.62;;;;;;;11.15;86.81;99690.69;1822544;78;25528;-73
2022/05/22 00:22:38;;;;;;;8.40;6.62;;;;;;;11.12;86.60;99697.56;1822634;78;27323;-72
2022/05/22 00:25:10;;;;;;;7.22;6.55;;;;;;;11.12;86.67;99691.36;1788409;80;25693;-72
2022/05/22 00:27:34;;;;;;;6.80;5.78;;;;;;;11.11;86.40;99692.47;1822215;78;25557;-72
2022/05/22 00:30:00;;;;;;;6.78;5.83;;;;;;;11.10;86.68;99686.27;1796870;78;34745;-72
2022/05/22 00:32:26;;;;;;;8.88;6.03;;;;;;;11.11;86.72;99686.48;1822621;78;25547;-73
2022/05/22 00:34:52;;;;;;;6.78;6.08;;;;;;;11.10;86.88;99687.63;1822577;78;27400;-71
2022/05/22 00:37:19;;;;;;;6.65;5.70;;;;;;;11.10;86.64;99690.34;1822466;78;25675;-72
2022/05/22 00:39:45;;;;;;;6.60;5.83;;;;;;;11.11;86.60;99693.26;1822633;78;25198;-75
2022/05/22 00:42:19;;;;;;;5.90;5.37;;;;;;;11.10;86.63;99689.52;1822587;78;25592;-73
2022/05/22 00:44:47;;;;;;;6.12;5.33;;;;;;;11.10;86.70;99693.04;1822702;78;25370;-72
2022/05/22 00:47:14;;;;;;;8.55;5.60;;;;;;;11.10;86.62;99694.39;1822663;78;27056;-74
2022/05/22 00:49:43;;;;;;;8.00;5.40;;;;;;;11.10;86.61;99686.81;1822488;78;25412;-74
2022/05/22 00:52:23;;;;;;;10.48;4.95;;;;;;;11.09;86.44;99696.86;1825432;78;25158;-72
2022/05/22 00:55:07;;;;;;;5.47;4.78;;;;;;;11.09;86.85;99702.27;1825563;78;25663;-72
2022/05/22 00:57:45;;;;;;;5.85;4.60;;;;;;;11.08;86.44;99696.61;1820227;78;25703;-71
2022/05/22 01:00:18;;;;;;;5.37;4.87;;;;;;;11.05;86.43;99697.29;1761914;79;27315;-72
2022/05/22 01:05:32;;;;;;;6.70;5.30;;;;;;;11.04;86.46;99695.69;1761583;81;25650;-71
2022/05/22 01:07:59;;;;;;;8.60;5.03;;;;;;;11.04;86.52;99698.39;1812875;78;25658;-72
2022/05/22 01:10:43;;;;;;;5.65;4.80;;;;;;;11.05;86.58;99700.00;1810257;79;25642;-72
2022/05/22 01:13:13;;;;;;;6.45;4.42;;;;;;;11.05;86.68;99698.64;1736159;82;27319;-73
2022/05/22 01:15:39;;;;;;;6.37;4.42;;;;;;;11.03;86.44;99700.31;1809969;79;25566;-73
2022/05/22 01:18:05;;;;;;;4.45;3.50;;;;;;;11.03;86.41;99696.80;1795043;79;25629;-73
2022/05/22 01:20:32;;;;;;;7.28;3.70;;;;;;;11.01;86.35;99699.83;1740160;81;26349;-74
2022/05/22 01:22:58;;;;;;;5.25;3.90;;;;;;;11.03;86.53;99696.80;1760573;81;25520;-74
2022/05/22 01:25:24;;;;;;;6.80;4.60;;;;;;;11.05;86.62;99700.00;1760551;81;27326;-73
2022/05/22 01:27:51;;;;;;;4.78;4.37;;;;;;;11.08;86.64;99699.89;1760503;81;25438;-73
2022/05/22 01:30:24;;;;;;;5.90;3.92;;;;;;;11.08;86.56;99695.83;1760671;81;25570;-73
2022/05/22 01:32:51;;;;;;;4.15;3.80;;;;;;;11.11;86.73;99700.59;1760606;81;25695;-73
2022/05/22 01:35:22;;;;;;;8.20;4.20;;;;;;;11.10;86.76;99697.10;1777121;80;25451;-73
2022/05/22 01:37:49;;;;;;;4.90;3.95;;;;;;;11.10;86.71;99697.10;1754304;80;27426;-72
2022/05/22 01:40:18;;;;;;;4.28;3.77;;;;;;;11.10;86.73;99698.45;1778914;80;25556;-72
2022/05/22 01:42:45;;;;;;;3.70;3.40;;;;;;;11.11;86.74;99701.95;1779149;80;25518;-73
2022/05/22 01:45:16;;;;;;;4.45;3.92;;;;;;;11.10;86.84;99698.45;1778989;80;25562;-71
2022/05/22 01:47:43;;;;;;;8.43;3.95;;;;;;;11.11;86.85;99696.53;1779170;80;25613;-73
2022/05/22 01:50:11;;;;;;;6.08;3.62;;;;;;;11.11;86.79;99701.38;1779127;80;27448;-72
2022/05/22 01:52:38;;;;;;;3.50;3.20;;;;;;;11.11;86.84;99706.79;1779065;80;25647;-72
2022/05/22 01:55:07;;;;;;;4.05;3.42;;;;;;;11.09;86.86;99708.25;1779236;80;25439;-72
2022/05/22 01:57:34;;;;;;;4.58;3.10;;;;;;;11.03;86.53;99709.79;1779270;80;25612;-72
2022/05/22 02:00:01;;;;;;;6.85;3.70;;;;;;;11.01;86.57;99713.36;1779185;80;25552;-71
2022/05/22 02:02:27;;;;;;;4.50;3.02;;;;;;;10.99;86.52;99715.60;1779184;80;28093;-72
2022/05/22 02:04:53;;;;;;;5.70;3.25;;;;;;;10.96;86.36;99709.48;1755000;80;25646;-72
2022/05/22 02:10:07;;;;;;;3.98;3.42;;;;;;;10.90;86.49;99718.92;1814992;79;25708;-73
2022/05/22 02:12:34;;;;;;;4.83;3.47;;;;;;;10.89;86.75;99718.67;1815413;79;25526;-74
2022/05/22 02:15:01;;;;;;;5.25;3.85;;;;;;;10.89;86.89;99713.83;1815097;79;27329;-73
2022/05/22 02:17:28;;;;;;;5.65;3.80;;;;;;;10.89;87.04;99717.89;1815048;78;25629;-73
2022/05/22 02:19:54;;;;;;;4.17;3.67;;;;;;;10.88;87.01;99721.70;1815094;78;25632;-71
2022/05/22 02:22:20;;;;;;;4.20;3.80;;;;;;;10.88;86.95;99723.05;1815079;79;25633;-71
2022/05/22 02:24:54;;;;;;;6.12;3.92;;;;;;;10.85;86.82;99717.75;1815149;79;25395;-72
2022/05/22 02:27:21;;;;;;;4.37;3.52;;;;;;;10.84;86.97;99722.91;1815176;79;27346;-72
2022/05/22 02:29:48;;;;;;;3.80;3.50;;;;;;;10.81;87.14;99718.95;1814909;79;25581;-73
2022/05/22 02:32:14;;;;;;;3.72;3.42;;;;;;;10.78;86.83;99719.59;1815107;79;25596;-73
2022/05/22 02:34:40;;;;;;;3.50;3.20;;;;;;;10.74;86.58;99718.64;1815018;79;25608;-72
2022/05/22 02:37:06;;;;;;;3.98;3.20;;;;;;;10.69;86.50;99718.81;1815108;79;25413;-72
2022/05/22 02:39:33;;;;;;;5.47;3.35;;;;;;;10.62;86.30;99713.94;1815072;79;27399;-72
2022/05/22 02:42:06;;;;;;;5.03;3.35;;;;;;;10.57;86.21;99719.52;1814953;79;25802;-72
2022/05/22 02:44:34;;;;;;;3.90;3.50;;;;;;;10.53;86.14;99717.77;1815087;79;25586;-72
2022/05/22 02:47:00;;;;;;;11.55;3.87;;;;;;;10.49;86.14;99723.57;1815028;78;26601;-73
2022/05/22 02:49:26;;;;;;;4.53;3.35;;;;;;;10.45;86.30;99722.89;1787599;79;25570;-71
2022/05/22 02:51:52;;;;;;;4.33;3.42;;;;;;;10.43;86.55;99722.39;1815045;78;27321;-72
2022/05/22 02:54:18;;;;;;;5.75;3.92;;;;;;;10.43;86.73;99728.36;1815042;79;25869;-71
2022/05/22 02:56:44;;;;;;;3.87;3.50;;;;;;;10.43;86.75;99721.61;1815035;79;25543;-71
2022/05/22 02:59:10;;;;;;;4.70;3.65;;;;;;;10.41;86.84;99723.28;1815070;79;25683;-69
2022/05/22 03:01:37;;;;;;;5.83;3.47;;;;;;;10.43;87.04;99725.66;1815103;77;25341;-71
2022/05/22 03:04:03;;;;;;;4.97;3.45;;;;;;;10.41;87.04;99720.57;1815086;78;27391;-70
2022/05/22 03:06:38;;;;;;;8.48;3.80;;;;;;;10.43;87.15;99726.45;1813233;78;25614;-71
2022/05/22 03:09:15;;;;;;;4.90;2.90;;;;;;;10.46;87.15;99727.73;1774686;80;25551;-71
2022/05/22 03:11:42;;;;;;;4.35;3.20;;;;;;;10.46;87.10;99720.40;1725155;82;26323;-71
2022/05/22 03:14:10;;;;;;;4.37;3.00;;;;;;;10.46;87.10;99717.70;1724125;83;25458;-71
2022/05/22 03:16:37;;;;;;;4.72;3.27;;;;;;;10.46;87.10;99716.34;1724081;83;27335;-70
2022/05/22 03:19:04;;;;;;;4.28;3.10;;;;;;;10.46;87.13;99710.94;1723963;83;25611;-70
2022/05/22 03:21:30;;;;;;;5.65;2.87;;;;;;;10.48;87.18;99713.89;1699340;83;25554;-70
2022/05/22 03:23:56;;;;;;;3.20;2.80;;;;;;;10.48;87.22;99706.56;1724106;83;26458;-70
2022/05/22 03:26:22;;;;;;;3.42;2.72;;;;;;;10.48;87.22;99717.38;1724207;82;25414;-70
2022/05/22 03:28:49;;;;;;;5.40;3.27;;;;;;;10.52;87.44;99714.28;1723966;83;27415;-73
2022/05/22 03:31:16;;;;;;;3.72;3.42;;;;;;;10.55;87.49;99716.89;1724005;82;25612;-73
2022/05/22 03:33:42;;;;;;;6.70;3.50;;;;;;;10.60;87.54;99728.88;1724163;83;25592;-71
2022/05/22 03:36:08;;;;;;;4.62;3.45;;;;;;;10.63;87.30;99722.83;1724084;82;26403;-70
2022/05/22 03:38:34;;;;;;;5.90;3.33;;;;;;;10.68;87.59;99719.17;1724206;82;25596;-71
2022/05/22 03:41:00;;;;;;;5.55;3.40;;;;;;;10.71;87.21;99720.66;1724169;83;28009;-71
2022/05/22 03:43:26;;;;;;;3.37;3.00;;;;;;;10.73;87.10;99722.48;1724069;83;25554;-71
2022/05/22 03:45:52;;;;;;;7.25;3.17;;;;;;;10.76;86.93;99719.13;1724158;82;29678;-71
2022/05/22 03:48:18;;;;;;;6.97;4.30;;;;;;;10.77;86.72;99719.35;1724119;83;25688;-71
2022/05/22 03:50:48;;;;;;;3.35;2.90;;;;;;;10.79;86.44;99723.09;1724146;82;32863;-71
2022/05/22 03:53:14;;;;;;;3.08;2.80;;;;;;;10.78;86.27;99726.36;1724062;83;27394;-71
2022/05/22 03:55:42;;;;;;;4.65;2.85;;;;;;;10.79;86.27;99722.52;1723995;82;25633;-72
2022/05/22 03:58:10;;;;;;;3.50;3.00;;;;;;;10.78;86.05;99722.30;1724061;82;25458;-70
2022/05/22 04:00:36;;;;;;;4.83;3.12;;;;;;;10.80;86.09;99721.41;1723976;83;25560;-71
2022/05/22 04:03:03;;;;;;;3.37;3.08;;;;;;;10.82;86.13;99722.45;1724104;82;25388;-71
2022/05/22 04:05:29;;;;;;;5.47;3.20;;;;;;;10.86;86.21;99721.23;1724063;82;27270;-72
2022/05/22 04:07:55;;;;;;;5.10;3.05;;;;;;;10.88;86.08;99725.22;1729183;81;33022;-72
2022/05/22 04:10:22;;;;;;;4.12;3.45;;;;;;;10.87;85.43;99723.62;1734699;82;29784;-72
2022/05/22 04:12:48;;;;;;;4.90;3.10;;;;;;;10.86;85.44;99728.00;1734730;82;25873;-72
2022/05/22 04:15:20;;;;;;;5.55;3.20;;;;;;;10.88;85.46;99721.16;1734763;82;25683;-72
2022/05/22 04:17:46;;;;;;;3.27;2.98;;;;;;;10.88;85.35;99722.52;1734757;82;27336;-71
2022/05/22 04:20:16;;;;;;;7.87;3.25;;;;;;;10.88;85.27;99731.17;1734647;81;25644;-69
2022/05/22 04:25:27;;;;;;;3.60;3.08;;;;;;;10.90;85.26;99729.73;1734805;82;25680;-71
2022/05/22 04:27:53;;;;;;;3.27;2.70;;;;;;;10.92;85.32;99736.97;1734728;82;25560;-72
2022/05/22 04:30:20;;;;;;;3.90;3.40;;;;;;;10.94;85.17;99735.30;1734670;82;27307;-71
2022/05/22 04:32:52;;;;;;;3.33;2.72;;;;;;;10.96;85.34;99729.78;1734644;82;25620;-71
2022/05/22 04:35:20;;;;;;;5.33;3.05;;;;;;;10.96;84.75;99730.34;1734785;81;25585;-70
2022/05/22 04:37:47;;;;;;;3.37;2.67;;;;;;;10.96;84.63;99735.75;1734695;82;26510;-71
2022/05/22 04:40:14;;;;;;;3.85;2.98;;;;;;;10.97;84.64;99744.13;1734744;82;25414;-72
2022/05/22 04:42:41;;;;;;;3.35;2.58;;;;;;;10.97;84.36;99738.14;1734725;82;27324;-71
2022/05/22 04:45:10;;;;;;;4.08;3.00;;;;;;;10.97;84.25;99736.00;1734678;82;25587;-71
2022/05/22 04:47:40;;;;;;;5.83;2.92;;;;;;;10.96;84.34;99728.98;1734870;81;25630;-71
2022/05/22 04:50:09;;;;;;;3.20;2.83;;;;;;;10.98;84.47;99736.22;1734646;81;25809;-71
2022/05/22 04:52:36;;;;;;;3.10;2.80;;;;;;;11.01;84.44;99732.87;1734945;82;25420;-70
2022/05/22 04:55:02;;;;;;;5.78;2.75;;;;;;;11.04;84.28;99736.28;1734713;82;28156;-70
2022/05/22 04:57:28;;;;;;;4.80;2.70;;;;;;;11.06;84.28;99736.75;1734618;82;25416;-70
2022/05/22 04:59:55;;;;;;;3.37;3.05;;;;;;;11.11;84.37;99739.27;1734686;82;25577;-71
2022/05/22 05:02:23;;;;;;;6.25;3.33;;;;;;;11.16;84.29;99736.38;1734690;82;26207;-73
2022/05/22 05:04:55;;;;;;;3.95;2.58;;;;;;;11.21;84.18;99742.17;1734762;81;25468;-70
2022/05/22 05:07:22;;;;;;;5.78;3.45;;;;;;;11.28;84.31;99735.69;1737542;81;27398;-72
2022/05/22 05:09:49;;;;;;;4.75;3.30;;;;;;;11.35;84.03;99740.59;1740431;82;25441;-72
2022/05/22 05:12:17;;;;;;;4.87;2.92;;;;;;;11.48;84.54;99738.77;1751855;81;25608;-70
2022/05/22 05:14:44;;;;;;;7.70;3.10;;;;;;;11.61;84.31;99734.21;1751872;81;25667;-70
2022/05/22 05:17:14;;;;;;;3.55;3.15;;;;;;;11.74;84.18;99738.59;1751941;81;25422;-70
2022/05/22 05:19:41;;;;;;;5.40;3.47;;;;;;;11.81;83.74;99741.55;1751911;81;27311;-71
2022/05/22 05:22:09;;;;;;;4.25;2.87;;;;;;;11.86;82.92;99736.50;1751933;81;25767;-71
2022/05/22 05:24:36;;;;;;;3.35;2.58;;;;;;;11.84;82.16;99734.70;1722173;81;25494;-74
2022/05/22 05:27:02;;;;;;;4.03;2.70;;;;;;;11.84;81.66;99741.47;1752020;81;25616;-72
2022/05/22 05:29:28;;;;;;;4.05;2.52;;;;;;;11.79;81.46;99751.94;1752001;81;25673;-72
2022/05/22 05:31:55;;;;;;;3.70;2.60;;;;;;;11.79;81.66;99747.88;1752048;81;28117;-71
2022/05/22 05:34:21;;;;;;;5.50;2.95;;;;;;;11.81;81.45;99745.62;1751954;81;25587;-71
2022/05/22 05:36:47;;;;;;;6.62;2.83;;;;;;;11.81;80.91;99747.55;1752072;80;25565;-72
2022/05/22 05:39:13;;;;;;;8.33;3.65;;;;;;;11.77;80.84;99749.55;1752045;81;25608;-72
2022/05/22 05:41:40;;;;;;;5.75;3.00;;;;;;;11.77;80.87;99755.55;1752088;81;25450;-72
2022/05/22 05:44:07;;;;;;;3.22;2.65;;;;;;;11.74;80.63;99740.72;1751987;81;27594;-72
2022/05/22 05:46:35;;;;;;;3.22;2.30;;;;;;;11.80;80.89;99745.41;1751985;81;25636;-72
2022/05/22 05:49:08;;;;;;;3.17;2.60;;;;;;;11.86;81.29;99739.22;1752019;81;25486;-72
2022/05/22 05:51:36;;;;;;;5.90;2.55;;;;;;;11.95;80.92;99738.06;1752032;81;25673;-72
2022/05/22 05:54:03;;;;;;;4.05;2.50;;;;;;;11.99;80.50;99737.41;1752168;81;25422;-72
2022/05/22 05:56:29;;;;;;;3.33;3.02;;;;;;;12.05;80.16;99745.55;1752076;81;28113;-72
2022/05/22 05:58:55;;;;;;;6.33;2.58;;;;;;;12.09;80.09;99743.77;1752014;81;33426;-73
2022/05/22 06:01:24;;;;;;;6.83;3.05;;;;;;;12.10;79.76;99740.70;1752118;81;25591;-70
2022/05/22 06:03:53;;;;;;;3.17;2.67;;;;;;;12.13;79.56;99736.55;1722272;81;26003;-70
2022/05/22 06:06:20;;;;;;;3.55;3.17;;;;;;;12.21;79.03;99734.87;1752074;81;25399;-71
2022/05/22 06:08:47;;;;;;;4.83;3.40;;;;;;;12.30;79.70;99737.73;1740676;81;27413;-71
2022/05/22 06:11:13;;;;;;;3.33;2.42;;;;;;;12.50;79.83;99738.03;1732676;82;25437;-72
2022/05/22 06:13:40;;;;;;;2.40;2.20;;;;;;;12.67;79.22;99741.13;1732802;82;25578;-72
2022/05/22 06:16:09;;;;;;;2.60;1.80;;;;;;;12.89;79.55;99734.49;1705449;82;25418;-72
2022/05/22 06:18:37;;;;;;;1.90;1.80;;;;;;;13.07;78.20;99731.77;1732907;81;25400;-72
2022/05/22 06:21:13;;;;;;;2.27;2.08;;;;;;;13.18;77.53;99738.12;1732854;82;27986;-72
2022/05/22 06:23:39;;;;;;;5.90;2.40;;;;;;;13.26;77.26;99733.94;1732283;82;25736;-71
2022/05/22 06:26:08;;;;;;;2.17;1.40;;;;;;;13.48;77.58;99744.69;1732776;82;30088;-71
2022/05/22 06:28:35;;;;;;;2.22;1.50;;;;;;;13.72;76.34;99745.20;1738702;80;25646;-72
2022/05/22 06:31:04;;;;;;;3.02;1.80;;;;;;;13.85;75.82;99755.50;1735684;81;25719;-72
2022/05/22 06:33:31;;;;;;;1.93;1.63;;;;;;;13.86;74.47;99751.08;1745226;81;27366;-71
2022/05/22 06:35:58;;;;;;;3.00;1.82;;;;;;;13.85;74.20;99751.42;1753394;81;25607;-73
2022/05/22 06:41:11;;;;;;;3.55;1.82;;;;;;;13.85;73.28;99752.78;1728688;81;26312;-70
2022/05/22 06:43:39;;;;;;;2.40;1.60;;;;;;;13.98;73.11;99751.61;1741174;81;25574;-72
2022/05/22 06:46:08;;;;;;;4.03;1.95;;;;;;;14.20;74.03;99749.71;1751976;81;27390;-70
2022/05/22 06:48:34;;;;;;;3.33;1.57;;;;;;;14.57;73.22;99746.01;1734162;82;26667;-71
2022/05/22 06:51:01;;;;;;;1.90;1.65;;;;;;;14.80;72.13;99743.53;1758320;81;29744;-72
2022/05/22 06:53:27;;;;;;;1.62;1.45;;;;;;;14.88;71.24;99745.84;1734814;81;25702;-72
2022/05/22 06:55:53;;;;;;;2.70;1.30;;;;;;;14.76;69.11;99746.71;1744283;81;25567;-72
2022/05/22 06:58:19;;;;;;;3.35;1.82;;;;;;;14.52;68.33;99747.08;1762768;81;28078;-72
2022/05/22 07:00:52;;;;;;;2.80;1.50;;;;;;;14.28;67.67;99749.91;1765343;81;33378;-72
2022/05/22 07:03:20;;;;;;;2.15;1.50;;;;;;;14.07;68.14;99753.61;1765872;81;25188;-74
2022/05/22 07:05:46;;;;;;;3.35;1.50;;;;;;;14.14;69.06;99743.50;1765478;81;25719;-73
2022/05/22 07:08:13;;;;;;;2.00;1.77;;;;;;;14.44;68.99;99740.41;1762796;81;25729;-74
2022/05/22 07:13:24;;;;;;;2.05;1.60;;;;;;;15.11;69.39;99742.72;1753206;81;25910;-73
2022/05/22 07:16:03;;;;;;;1.70;1.60;;;;;;;15.20;67.32;99738.45;1753270;81;25674;-74
2022/05/22 07:18:29;;;;;;;1.98;1.67;;;;;;;15.15;66.61;99743.38;1753385;81;25446;-74
2022/05/22 07:20:56;;;;;;;3.20;1.70;;;;;;;15.12;65.93;99748.40;1753253;81;25647;-73
2022/05/22 07:23:23;;;;;;;1.55;1.42;;;;;;;15.05;65.44;99737.34;1753287;81;27157;-73
2022/05/22 07:25:51;;;;;;;4.25;1.60;;;;;;;15.21;66.42;99737.89;1753189;81;25449;-72
2022/05/22 07:28:18;;;;;;;2.50;1.42;;;;;;;15.55;67.00;99741.00;1753239;81;25569;-73
2022/05/22 07:30:45;;;;;;;1.50;1.40;;;;;;;15.96;65.97;99745.02;1752628;81;25649;-73
2022/05/22 07:33:12;;;;;;;2.02;1.30;;;;;;;16.36;65.26;99746.59;1760520;81;25563;-74
2022/05/22 07:35:38;;;;;;;2.92;1.45;;;;;;;16.69;64.94;99738.98;1763031;80;27391;-74
2022/05/22 07:38:04;;;;;;;4.10;1.50;;;;;;;16.96;64.15;99733.02;1762929;80;25421;-74
2022/05/22 07:40:31;;;;;;;2.72;1.57;;;;;;;16.93;61.78;99739.99;1762693;81;25675;-71
2022/05/22 07:42:58;;;;;;;3.27;1.47;;;;;;;16.76;59.64;99735.78;1761917;80;26274;-72
2022/05/22 07:45:24;;;;;;;1.30;1.20;;;;;;;16.64;59.63;99739.28;1762714;80;25473;-72
2022/05/22 07:47:52;;;;;;;2.05;1.27;;;;;;;16.75;59.27;99747.06;1762790;80;27344;-67
2022/05/22 07:50:22;;;;;;;5.08;1.25;;;;;;;16.99;59.96;99744.01;1762662;80;25595;-71
2022/05/22 07:52:50;;;;;;;1.32;1.22;;;;;;;17.36;58.97;99739.28;1761898;80;25672;-69
2022/05/22 07:55:18;;;;;;;2.25;1.27;;;;;;;17.71;58.87;99725.13;1761786;81;25804;-69
2022/05/22 07:57:48;;;;;;;1.50;1.20;;;;;;;17.79;57.96;99736.94;1762957;81;25701;-68
2022/05/22 08:00:19;;;;;;;1.37;1.25;;;;;;;17.59;56.70;99744.48;1762713;81;28096;-69
2022/05/22 08:02:47;;;;;;;3.37;1.32;;;;;;;17.25;56.98;99743.82;1762646;81;25663;-69
2022/05/22 08:05:17;;;;;;;2.00;1.50;;;;;;;17.04;57.48;99740.74;1762890;80;25654;-69
2022/05/22 08:07:47;;;;;;;2.40;1.42;;;;;;;16.92;57.50;99744.45;1762739;81;25687;-68
2022/05/22 08:10:15;;;;;;;1.22;1.12;;;;;;;16.95;58.16;99745.88;1761470;80;25800;-68
2022/05/22 08:12:46;;;;;;;2.62;1.52;;;;;;;17.31;58.75;99747.02;1761310;81;27333;-69
2022/05/22 08:15:17;;;;;;;2.12;1.20;;;;;;;17.70;58.00;99744.83;1761190;81;25549;-69
2022/05/22 08:17:44;;;;;;;2.22;1.52;;;;;;;18.03;56.60;99750.19;1760015;81;25807;-69
2022/05/22 08:20:19;;;;;;;2.25;1.42;;;;;;;18.45;56.85;99730.49;1760948;81;26521;-70
2022/05/22 08:22:47;;;;;;;1.82;1.02;;;;;;;18.48;56.93;99736.59;1761087;81;25766;-70
2022/05/22 08:25:18;;;;;;;2.50;1.62;;;;;;;18.09;56.97;99739.69;1760748;81;27331;-69
2022/05/22 08:27:45;;;;;;;1.95;1.37;;;;;;;17.36;56.11;99755.69;1760871;81;25607;-70
2022/05/22 08:30:14;;;;;;;2.40;1.62;;;;;;;16.86;56.26;99759.00;1760783;81;25675;-70
2022/05/22 08:32:44;;;;;;;3.90;1.60;;;;;;;16.60;57.54;99753.66;1761049;81;26104;-69
2022/05/22 08:35:19;;;;;;;3.65;1.57;;;;;;;16.55;58.36;99759.97;1761040;81;25690;-68
2022/05/22 08:37:46;;;;;;;2.30;1.25;;;;;;;16.71;57.51;99749.73;1760904;81;27401;-68
2022/05/22 08:40:17;;;;;;;2.62;1.30;;;;;;;16.61;57.48;99755.21;1760596;81;25701;-68
2022/05/22 08:43:04;;;;;;;1.67;1.57;;;;;;;16.50;56.74;99755.61;1743408;81;25490;-68
2022/05/22 08:45:35;;;;;;;2.70;1.60;;;;;;;16.31;56.04;99758.34;1760756;81;25686;-68
2022/05/22 08:48:21;;;;;;;1.55;1.20;;;;;;;15.98;56.19;99754.20;1759852;81;25595;-67
2022/05/22 08:50:50;;;;;;;1.85;1.45;;;;;;;15.76;56.76;99760.56;1760872;81;27303;-68
2022/05/22 08:53:36;;;;;;;3.80;1.40;;;;;;;15.71;58.45;99758.08;1761031;81;25771;-68
2022/05/22 08:59:09;;;;;;;2.15;1.40;;;;;;;16.22;59.03;99753.90;1761258;81;25631;-68
2022/05/22 09:01:58;;;;;;;2.08;1.50;;;;;;;16.75;59.14;99753.89;1760838;81;26375;-69
2022/05/22 09:04:36;;;;;;;4.42;1.72;;;;;;;17.41;58.78;99740.14;1761525;81;27345;-69
2022/05/22 09:07:34;;;;;;;2.27;1.70;;;;;;;18.05;57.71;99729.30;1761045;81;25678;-68
2022/05/22 09:10:06;;;;;;;3.35;1.75;;;;;;;18.72;56.92;99735.84;1760912;80;34869;-68
2022/05/22 09:12:49;;;;;;;2.45;1.40;;;;;;;19.38;54.82;99737.36;1759914;81;26423;-69
2022/05/22 09:15:29;;;;;;;1.45;1.00;;;;;;;19.52;52.43;99738.03;1761030;81;25660;-67
2022/05/22 09:18:09;;;;;;;5.45;3.70;;;;;;;19.22;50.78;99741.17;1753397;81;27322;-71
2022/05/22 09:20:59;;;;;;;3.42;1.57;;;;;;;18.78;50.83;99746.64;1726268;81;25708;-68
2022/05/22 09:23:30;;;;;;;2.58;1.47;;;;;;;18.35;50.32;99754.44;1724595;82;25585;-68
2022/05/22 09:26:10;;;;;;;1.90;1.45;;;;;;;17.74;50.82;99759.36;1740476;81;25696;-68
2022/05/22 09:29:00;;;;;;;5.15;1.70;;;;;;;17.35;51.08;99760.95;1731878;81;25758;-67
2022/05/22 09:31:46;;;;;;;2.30;1.50;;;;;;;16.92;51.42;99748.55;1724619;82;27336;-69
2022/05/22 09:34:36;;;;;;;3.80;1.50;;;;;;;16.52;51.99;99754.67;1730685;82;25729;-68
2022/05/22 09:37:08;;;;;;;1.40;1.30;;;;;;;16.27;52.78;99758.28;1725719;81;25718;-69
2022/05/22 09:40:07;;;;;;;2.90;1.50;;;;;;;16.10;53.63;99756.00;1743330;81;25764;-68
2022/05/22 09:42:55;;;;;;;;;;;;;;;16.00;54.10;99753.27;1727670;83;25716;-69
2022/05/22 09:45:33;;;;;;;1.65;1.40;;;;;;;15.87;54.05;99741.72;1665006;86;27399;-69
2022/05/22 09:48:35;;;;;;;3.77;1.60;;;;;;;15.64;54.66;99757.35;1649367;86;26064;-69
2022/05/22 09:51:07;;;;;;;1.92;1.45;;;;;;;15.49;54.50;99755.45;1660539;86;25795;-70
2022/05/22 09:54:11;;;;;;;1.62;1.52;;;;;;;15.33;54.53;99756.08;1644449;86;25591;-70
2022/05/22 09:57:15;;;;;;;3.62;1.40;;;;;;;15.24;54.94;99760.35;1665688;86;25622;-69
2022/05/22 10:00:20;;;;;;;1.60;1.47;;;;;;;15.17;55.27;99760.16;1615948;88;26891;-69
2022/05/22 10:03:27;;;;;;;2.58;1.77;;;;;;;15.19;56.15;99760.04;1601034;89;25787;-69
2022/05/22 10:06:10;;;;;;;5.17;2.33;;;;;;;15.27;56.02;99759.07;1596043;89;25787;-69
2022/05/22 10:09:03;;;;;;;3.08;2.00;;;;;;;15.41;56.36;99755.07;1591344;89;26560;-70
2022/05/22 10:11:53;;;;;;;2.83;2.62;;;;;;;15.52;55.92;99762.14;1617637;87;25441;-72
2022/05/22 10:14:31;;;;;;;2.08;1.42;;;;;;;15.62;55.50;99759.65;1622771;87;28283;-70
2022/05/22 10:17:26;;;;;;;3.15;1.72;;;;;;;15.56;54.98;99761.64;1633378;87;25764;-70
2022/05/22 10:20:14;;;;;;;3.72;2.17;;;;;;;15.43;54.92;99748.72;1654437;85;25938;-70
2022/05/22 10:23:30;;;;;;;2.45;1.87;;;;;;;15.25;54.98;99757.25;1645309;86;25839;-71
2022/05/22 10:26:51;;;;;;;4.70;1.60;;;;;;;15.09;55.14;99751.83;1626285;87;25670;-70
2022/05/22 10:29:31;;;;;;;2.37;1.30;;;;;;;15.02;55.70;99755.74;1627304;88;27411;-70
2022/05/22 10:32:27;;;;;;;4.62;1.77;;;;;;;15.03;56.52;99753.22;1626961;88;25829;-69
2022/05/22 10:35:35;;;;;;;3.62;1.87;;;;;;;15.20;56.95;99747.98;1646623;84;25839;-71
2022/05/22 10:44:39;;;;;;;;;;;;;;;15.75;56.16;99760.88;1749079;81;27321;-70
2022/05/22 10:47:14;;;;;;;2.77;1.92;;;;;;;15.73;55.83;99761.82;1728075;81;25661;-70
2022/05/22 10:49:54;;;;;;;2.22;1.50;;;;;;;15.66;55.57;99767.35;1743128;81;26431;-70
2022/05/22 10:52:37;;;;;;;4.42;3.40;;;;;;;15.52;54.90;99760.20;1741375;81;26047;-70
2022/05/22 10:55:21;;;;;;;4.47;2.17;;;;;;;15.44;55.08;99763.91;1728118;81;25402;-70
2022/05/22 10:58:08;;;;;;;2.20;1.80;;;;;;;15.41;55.46;99767.33;1741310;81;27394;-69
2022/05/22 11:00:54;;;;;;;2.37;1.40;;;;;;;15.45;55.76;99766.86;1724936;83;25568;-69
2022/05/22 11:03:38;;;;;;;3.40;1.87;;;;;;;15.44;55.06;99761.99;1731176;81;25740;-70
2022/05/22 11:06:22;;;;;;;2.95;1.80;;;;;;;15.38;55.29;99770.20;1737543;81;25662;-71
2022/05/22 11:08:58;;;;;;;2.02;1.65;;;;;;;15.34;54.83;99761.73;1722754;83;25755;-71
2022/05/22 11:11:41;;;;;;;11.90;1.85;;;;;;;15.34;55.16;99769.34;1732214;82;27465;-69
2022/05/22 11:14:32;;;;;;;4.33;1.85;;;;;;;15.40;55.15;99769.28;1747934;81;25644;-68
2022/05/22 11:17:22;;;;;;;2.75;2.00;;;;;;;15.56;55.16;99767.91;1761123;81;25702;-69
2022/05/22 11:19:58;;;;;;;2.83;1.60;;;;;;;15.91;55.89;99765.75;1743920;81;25745;-68
2022/05/22 11:22:36;;;;;;;1.72;1.62;;;;;;;16.21;55.09;99767.92;1743107;81;25615;-69
2022/05/22 11:25:41;;;;;;;2.70;1.90;;;;;;;16.37;54.77;99767.83;1759621;81;27441;-69
2022/05/22 11:28:50;;;;;;;2.40;1.98;;;;;;;16.42;53.38;99764.81;1746092;81;25651;-70
2022/05/22 11:31:29;;;;;;;2.20;2.00;;;;;;;16.35;53.14;99768.19;1761776;81;25682;-67
2022/05/22 11:34:53;;;;;;;4.78;1.90;;;;;;;16.24;52.87;99767.19;1747929;81;25700;-70
2022/05/22 11:38:06;;;;;;;3.00;2.25;;;;;;;16.14;52.65;99771.30;1738013;81;26094;-69
2022/05/22 11:40:47;;;;;;;3.83;2.27;;;;;;;16.08;53.08;99766.48;1761259;81;27877;-69
2022/05/22 11:44:03;;;;;;;5.08;2.67;;;;;;;16.14;53.56;99770.49;1737513;81;25699;-66
2022/05/22 11:46:53;;;;;;;4.72;3.08;;;;;;;16.23;53.60;99774.59;1742908;81;25660;-69
2022/05/22 11:49:39;;;;;;;2.70;2.12;;;;;;;16.23;53.37;99775.17;1761304;80;25614;-68
2022/05/22 11:52:55;;;;;;;4.25;1.95;;;;;;;16.22;53.12;99779.82;1771291;80;25575;-69
2022/05/22 11:55:59;;;;;;;4.58;2.20;;;;;;;16.23;53.20;99780.05;1763042;80;27759;-70
2022/05/22 11:59:09;;;;;;;3.70;1.87;;;;;;;16.31;53.39;99780.99;1766992;80;25639;-69
2022/05/22 12:02:19;;;;;;;3.27;1.92;;;;;;;16.44;53.30;99775.57;1766167;80;25600;-70
2022/05/22 12:05:06;;;;;;;2.15;1.90;;;;;;;16.49;52.69;99781.32;1720405;83;25619;-67
2022/05/22 12:08:09;;;;;;;2.33;2.02;;;;;;;16.50;52.47;99782.09;1668580;84;25880;-70
2022/05/22 12:11:16;;;;;;;2.45;1.70;;;;;;;16.45;52.51;99785.93;1679651;85;28277;-68
2022/05/22 12:14:26;;;;;;;5.05;2.60;;;;;;;16.39;52.18;99784.63;1647421;85;25818;-67
2022/05/22 12:17:14;;;;;;;2.52;2.00;;;;;;;16.34;52.16;99789.80;1684542;83;25912;-65
2022/05/22 12:19:55;;;;;;;2.25;1.90;;;;;;;16.29;52.09;99783.85;1679663;85;25749;-69
2022/05/22 12:23:07;;;;;;;;;;;;;;;16.20;51.38;99788.95;1682084;85;25782;-67
2022/05/22 12:25:07;;;;;;;3.35;1.57;;;;;;;16.13;51.13;99779.26;1677591;85;27522;-67
2022/05/22 12:27:40;;;;;;;6.40;2.92;;;;;;;16.03;50.93;99781.97;1678387;84;25904;-68